sensor_id;sensor_type;location;lat;lon;timestamp;pressure;altitude;pressure_sealevel;temperature;humidity
65019;BME280;66069;51.164;-114.452;2023-02-10T00:01:33;88176.31;;;17.87;43.52
65019;BME280;66069;51.164;-114.452;2023-02-10T00:03:59;88175.63;;;17.79;43.35
65019;BME280;66069;51.164;-114.452;2023-02-10T00:06:26;88181.34;;;17.78;43.51
65019;BME280;66069;51.164;-114.452;2023-02-10T00:08:57;88194.13;;;17.86;43.31
65019;BME280;66069;51.164;-114.452;2023-02-10T00:11:26;88186.63;;;17.78;43.41
65019;BME280;66069;51.164;-114.452;2023-02-10T00:14:12;88188.13;;;17.79;43.44
65019;BME280;66069;51.164;-114.452;2023-02-10T00:16:39;88188.47;;;17.84;43.48
65019;BME280;66069;51.164;-114.452;2023-02-10T00:19:05;88178.31;;;17.75;43.69
65019;BME280;66069;51.164;-114.452;2023-02-10T00:21:32;88191.13;;;17.81;43.72
65019;BME280;66069;51.164;-114.452;2023-02-10T00:23:58;88196.03;;;17.82;43.98
65019;BME280;66069;51.164;-114.452;2023-02-10T00:26:25;88199.91;;;17.78;43.78
65019;BME280;66069;51.164;-114.452;2023-02-10T00:28:52;88200.66;;;17.78;43.98
65019;BME280;66069;51.164;-114.452;2023-02-10T00:31:19;88215.75;;;17.81;43.93
65019;BME280;66069;51.164;-114.452;2023-02-10T00:33:47;88201.41;;;17.75;43.79
65019;BME280;66069;51.164;-114.452;2023-02-10T00:36:15;88211.25;;;17.78;43.81
65019;BME280;66069;51.164;-114.452;2023-02-10T00:38:42;88212.34;;;17.81;43.82
65019;BME280;66069;51.164;-114.452;2023-02-10T00:41:12;88195.41;;;17.67;43.87
65019;BME280;66069;51.164;-114.452;2023-02-10T00:43:38;88202.91;;;17.80;43.68
65019;BME280;66069;51.164;-114.452;2023-02-10T00:46:06;88196.53;;;17.73;43.86
65019;BME280;66069;51.164;-114.452;2023-02-10T00:48:33;88186.31;;;17.68;43.73
65019;BME280;66069;51.164;-114.452;2023-02-10T00:50:59;88212.03;;;17.75;43.76
65019;BME280;66069;51.164;-114.452;2023-02-10T00:53:26;88207.53;;;17.72;43.90
65019;BME280;66069;51.164;-114.452;2023-02-10T00:55:52;88205.19;;;17.78;43.89
65019;BME280;66069;51.164;-114.452;2023-02-10T00:58:18;88192.06;;;17.60;44.02
65019;BME280;66069;51.164;-114.452;2023-02-10T01:00:45;88195.75;;;17.69;44.23
65019;BME280;66069;51.164;-114.452;2023-02-10T01:03:11;88198.41;;;17.73;44.26
65019;BME280;66069;51.164;-114.452;2023-02-10T01:05:38;88197.25;;;17.78;44.25
65019;BME280;66069;51.164;-114.452;2023-02-10T01:08:04;88188.91;;;17.75;44.24
65019;BME280;66069;51.164;-114.452;2023-02-10T01:10:32;88204.06;;;17.79;44.24
65019;BME280;66069;51.164;-114.452;2023-02-10T01:13:03;88193.13;;;17.73;44.25
65019;BME280;66069;51.164;-114.452;2023-02-10T01:15:30;88189.34;;;17.67;44.22
65019;BME280;66069;51.164;-114.452;2023-02-10T01:17:57;88190.09;;;17.71;44.11
65019;BME280;66069;51.164;-114.452;2023-02-10T01:20:23;88179.09;;;17.69;44.06
65019;BME280;66069;51.164;-114.452;2023-02-10T01:22:50;88180.59;;;17.70;43.99
65019;BME280;66069;51.164;-114.452;2023-02-10T01:25:16;88175.28;;;17.70;43.99
65019;BME280;66069;51.164;-114.452;2023-02-10T01:27:43;88179.84;;;17.69;43.97
65019;BME280;66069;51.164;-114.452;2023-02-10T01:30:09;88175.31;;;17.73;44.03
65019;BME280;66069;51.164;-114.452;2023-02-10T01:32:36;88155.31;;;17.62;44.02
65019;BME280;66069;51.164;-114.452;2023-02-10T01:35:04;88153.06;;;17.60;43.94
65019;BME280;66069;51.164;-114.452;2023-02-10T01:37:30;88143.28;;;17.54;43.96
65019;BME280;66069;51.164;-114.452;2023-02-10T01:39:56;88146.66;;;17.58;43.92
65019;BME280;66069;51.164;-114.452;2023-02-10T01:42:23;88137.97;;;17.54;43.97
65019;BME280;66069;51.164;-114.452;2023-02-10T01:47:15;88157.56;;;17.63;43.83
65019;BME280;66069;51.164;-114.452;2023-02-10T01:49:48;88168.53;;;17.65;43.96
65019;BME280;66069;51.164;-114.452;2023-02-10T01:52:20;88161.75;;;17.61;43.87
65019;BME280;66069;51.164;-114.452;2023-02-10T01:54:57;88155.03;;;17.53;43.84
65019;BME280;66069;51.164;-114.452;2023-02-10T01:57:26;88171.22;;;17.62;43.90
65019;BME280;66069;51.164;-114.452;2023-02-10T01:59:53;88167.88;;;17.58;43.90
65019;BME280;66069;51.164;-114.452;2023-02-10T02:02:20;88153.53;;;17.52;43.80
65019;BME280;66069;51.164;-114.452;2023-02-10T02:04:52;88173.16;;;17.58;44.01
65019;BME280;66069;51.164;-114.452;2023-02-10T02:07:23;88156.94;;;17.52;43.90
65019;BME280;66069;51.164;-114.452;2023-02-10T02:09:54;88158.84;;;17.48;43.72
65019;BME280;66069;51.164;-114.452;2023-02-10T02:12:31;88159.91;;;17.58;43.85
65019;BME280;66069;51.164;-114.452;2023-02-10T02:18:16;88145.59;;;17.48;43.77
65019;BME280;66069;51.164;-114.452;2023-02-10T02:26:35;88151.25;;;17.50;44.07
65019;BME280;66069;51.164;-114.452;2023-02-10T02:34:40;88141.44;;;17.47;44.04
65019;BME280;66069;51.164;-114.452;2023-02-10T02:37:23;88160.28;;;17.56;44.39
65019;BME280;66069;51.164;-114.452;2023-02-10T02:39:53;88154.31;;;17.45;44.29
65019;BME280;66069;51.164;-114.452;2023-02-10T02:42:26;88158.38;;;17.57;44.43
65019;BME280;66069;51.164;-114.452;2023-02-10T02:45:05;88161.78;;;17.57;44.39
65019;BME280;66069;51.164;-114.452;2023-02-10T02:50:38;88156.13;;;17.59;44.48
65019;BME280;66069;51.164;-114.452;2023-02-10T02:53:21;88137.31;;;17.46;44.62
65019;BME280;66069;51.164;-114.452;2023-02-10T03:01:05;88127.03;;;17.48;44.63
65019;BME280;66069;51.164;-114.452;2023-02-10T03:03:34;88139.44;;;17.58;44.74
65019;BME280;66069;51.164;-114.452;2023-02-10T03:06:02;88142.84;;;17.59;44.79
65019;BME280;66069;51.164;-114.452;2023-02-10T03:08:30;88123.97;;;17.53;44.59
65019;BME280;66069;51.164;-114.452;2023-02-10T03:10:57;88105.41;;;17.53;44.75
65019;BME280;66069;51.164;-114.452;2023-02-10T03:13:24;88125.03;;;17.59;45.04
65019;BME280;66069;51.164;-114.452;2023-02-10T03:15:50;88111.81;;;17.56;45.04
65019;BME280;66069;51.164;-114.452;2023-02-10T03:18:16;88100.53;;;17.48;45.03
65019;BME280;66069;51.164;-114.452;2023-02-10T03:20:43;88108.47;;;17.52;44.91
65019;BME280;66069;51.164;-114.452;2023-02-10T03:23:10;88116.34;;;17.59;44.97
65019;BME280;66069;51.164;-114.452;2023-02-10T03:25:36;88116.03;;;17.53;44.97
65019;BME280;66069;51.164;-114.452;2023-02-10T03:28:03;88111.47;;;17.54;44.99
65019;BME280;66069;51.164;-114.452;2023-02-10T03:30:31;88109.88;;;17.60;44.83
65019;BME280;66069;51.164;-114.452;2023-02-10T03:32:57;88110.22;;;17.62;44.82
65019;BME280;66069;51.164;-114.452;2023-02-10T03:35:24;88105.34;;;17.60;44.77
65019;BME280;66069;51.164;-114.452;2023-02-10T03:37:50;88098.97;;;17.54;44.63
65019;BME280;66069;51.164;-114.452;2023-02-10T03:40:16;88106.84;;;17.61;44.81
65019;BME280;66069;51.164;-114.452;2023-02-10T03:42:43;88111.72;;;17.63;44.82
65019;BME280;66069;51.164;-114.452;2023-02-10T03:45:09;88101.50;;;17.65;44.68
65019;BME280;66069;51.164;-114.452;2023-02-10T03:47:35;88086.81;;;17.57;44.75
65019;BME280;66069;51.164;-114.452;2023-02-10T03:50:02;88096.94;;;17.65;44.99
65019;BME280;66069;51.164;-114.452;2023-02-10T03:52:28;88082.31;;;17.50;45.06
65019;BME280;66069;51.164;-114.452;2023-02-10T03:54:54;88102.63;;;17.64;44.97
65019;BME280;66069;51.164;-114.452;2023-02-10T03:57:20;88074.75;;;17.52;45.03
65019;BME280;66069;51.164;-114.452;2023-02-10T03:59:47;88076.56;;;17.59;45.02
65019;BME280;66069;51.164;-114.452;2023-02-10T04:02:13;88084.91;;;17.57;44.93
65019;BME280;66069;51.164;-114.452;2023-02-10T04:04:39;88076.16;;;17.60;44.86
65019;BME280;66069;51.164;-114.452;2023-02-10T04:07:06;88085.97;;;17.63;44.88
65019;BME280;66069;51.164;-114.452;2023-02-10T04:09:32;88074.34;;;17.54;44.77
65019;BME280;66069;51.164;-114.452;2023-02-10T04:11:58;88063.69;;;17.57;44.87
65019;BME280;66069;51.164;-114.452;2023-02-10T04:14:25;88056.53;;;17.54;44.78
65019;BME280;66069;51.164;-114.452;2023-02-10T04:16:54;88076.16;;;17.60;44.74
65019;BME280;66069;51.164;-114.452;2023-02-10T04:19:21;88055.72;;;17.57;44.85
65019;BME280;66069;51.164;-114.452;2023-02-10T04:21:47;88052.38;;;17.53;44.76
65019;BME280;66069;51.164;-114.452;2023-02-10T04:24:14;88054.63;;;17.58;44.63
65019;BME280;66069;51.164;-114.452;2023-02-10T04:26:40;88048.91;;;17.60;44.90
65019;BME280;66069;51.164;-114.452;2023-02-10T04:29:07;88044.03;;;17.55;44.89
65019;BME280;66069;51.164;-114.452;2023-02-10T04:31:33;88061.31;;;17.66;45.00
65019;BME280;66069;51.164;-114.452;2023-02-10T04:33:59;88067.38;;;17.67;44.95
65019;BME280;66069;51.164;-114.452;2023-02-10T04:36:26;88042.03;;;17.62;45.06
65019;BME280;66069;51.164;-114.452;2023-02-10T04:38:52;88054.16;;;17.63;45.03
65019;BME280;66069;51.164;-114.452;2023-02-10T04:41:19;88031.13;;;17.57;44.92
65019;BME280;66069;51.164;-114.452;2023-02-10T04:43:45;88029.59;;;17.59;44.98
65019;BME280;66069;51.164;-114.452;2023-02-10T04:46:11;88033.78;;;17.57;44.78
65019;BME280;66069;51.164;-114.452;2023-02-10T04:48:38;88030.00;;;17.58;44.93
65019;BME280;66069;51.164;-114.452;2023-02-10T04:51:09;88037.06;;;17.68;44.75
65019;BME280;66069;51.164;-114.452;2023-02-10T04:53:37;88028.84;;;17.59;44.82
65019;BME280;66069;51.164;-114.452;2023-02-10T04:56:03;88020.56;;;17.53;44.73
65019;BME280;66069;51.164;-114.452;2023-02-10T04:58:31;88036.44;;;17.57;44.87
65019;BME280;66069;51.164;-114.452;2023-02-10T05:00:57;88026.09;;;17.66;44.72
65019;BME280;66069;51.164;-114.452;2023-02-10T05:03:24;88031.88;;;17.57;44.70
65019;BME280;66069;51.164;-114.452;2023-02-10T05:05:51;88029.16;;;17.64;44.75
65019;BME280;66069;51.164;-114.452;2023-02-10T05:08:19;88029.91;;;17.65;44.69
65019;BME280;66069;51.164;-114.452;2023-02-10T05:10:49;88026.63;;;17.54;44.44
65019;BME280;66069;51.164;-114.452;2023-02-10T05:13:16;88034.09;;;17.62;44.50
65019;BME280;66069;51.164;-114.452;2023-02-10T05:15:43;88022.84;;;17.51;44.63
65019;BME280;66069;51.164;-114.452;2023-02-10T05:18:09;88010.38;;;17.52;44.55
65019;BME280;66069;51.164;-114.452;2023-02-10T05:20:35;88029.19;;;17.61;44.62
65019;BME280;66069;51.164;-114.452;2023-02-10T05:23:02;88010.41;;;17.48;44.40
65019;BME280;66069;51.164;-114.452;2023-02-10T05:25:28;87990.78;;;17.42;44.40
65019;BME280;66069;51.164;-114.452;2023-02-10T05:27:55;88005.06;;;17.52;44.68
65019;BME280;66069;51.164;-114.452;2023-02-10T05:30:21;87999.38;;;17.53;44.56
65019;BME280;66069;51.164;-114.452;2023-02-10T05:32:47;87994.59;;;17.41;44.41
65019;BME280;66069;51.164;-114.452;2023-02-10T05:35:14;87972.75;;;17.30;44.37
65019;BME280;66069;51.164;-114.452;2023-02-10T05:37:40;87988.47;;;17.44;44.35
65019;BME280;66069;51.164;-114.452;2023-02-10T05:40:07;87988.09;;;17.45;44.34
65019;BME280;66069;51.164;-114.452;2023-02-10T05:42:33;87991.50;;;17.46;44.23
65019;BME280;66069;51.164;-114.452;2023-02-10T05:44:59;87988.81;;;17.49;44.30
65019;BME280;66069;51.164;-114.452;2023-02-10T05:47:26;87981.59;;;17.50;44.26
65019;BME280;66069;51.164;-114.452;2023-02-10T05:49:52;87973.69;;;17.46;44.31
65019;BME280;66069;51.164;-114.452;2023-02-10T05:52:18;87976.69;;;17.48;44.26
65019;BME280;66069;51.164;-114.452;2023-02-10T05:54:45;87960.91;;;17.38;44.33
65019;BME280;66069;51.164;-114.452;2023-02-10T05:57:11;87956.44;;;17.35;44.26
65019;BME280;66069;51.164;-114.452;2023-02-10T05:59:37;87950.72;;;17.36;44.16
65019;BME280;66069;51.164;-114.452;2023-02-10T06:02:04;87944.25;;;17.37;44.16
65019;BME280;66069;51.164;-114.452;2023-02-10T06:04:30;87958.66;;;17.36;44.28
65019;BME280;66069;51.164;-114.452;2023-02-10T06:06:56;87950.28;;;17.41;44.18
65019;BME280;66069;51.164;-114.452;2023-02-10T06:09:23;87932.56;;;17.35;44.09
65019;BME280;66069;51.164;-114.452;2023-02-10T06:11:52;87943.13;;;17.38;44.15
65019;BME280;66069;51.164;-114.452;2023-02-10T06:14:19;87919.00;;;17.29;44.05
65019;BME280;66069;51.164;-114.452;2023-02-10T06:16:45;87916.31;;;17.33;44.17
65019;BME280;66069;51.164;-114.452;2023-02-10T06:19:12;87943.56;;;17.33;44.12
65019;BME280;66069;51.164;-114.452;2023-02-10T06:21:38;87932.19;;;17.33;44.30
65019;BME280;66069;51.164;-114.452;2023-02-10T06:24:04;87928.13;;;17.28;44.13
65019;BME280;66069;51.164;-114.452;2023-02-10T06:26:31;87932.19;;;17.33;44.14
65019;BME280;66069;51.164;-114.452;2023-02-10T06:28:57;87940.53;;;17.35;44.08
65019;BME280;66069;51.164;-114.452;2023-02-10T06:31:23;87926.25;;;17.25;44.15
65019;BME280;66069;51.164;-114.452;2023-02-10T06:33:51;87913.06;;;17.21;44.08
65019;BME280;66069;51.164;-114.452;2023-02-10T06:36:17;87912.25;;;17.25;44.18
65019;BME280;66069;51.164;-114.452;2023-02-10T06:38:43;87933.41;;;17.28;44.02
65019;BME280;66069;51.164;-114.452;2023-02-10T06:41:10;87901.31;;;17.22;44.25
65019;BME280;66069;51.164;-114.452;2023-02-10T06:43:36;87899.75;;;17.25;44.14
65019;BME280;66069;51.164;-114.452;2023-02-10T06:46:02;87912.69;;;17.19;44.03
65019;BME280;66069;51.164;-114.452;2023-02-10T06:48:30;87919.50;;;17.20;44.02
65019;BME280;66069;51.164;-114.452;2023-02-10T06:50:57;87890.44;;;17.13;43.95
65019;BME280;66069;51.164;-114.452;2023-02-10T06:53:23;87872.28;;;17.12;43.96
65019;BME280;66069;51.164;-114.452;2023-02-10T06:55:49;87888.09;;;17.19;44.20
65019;BME280;66069;51.164;-114.452;2023-02-10T06:58:16;87893.75;;;17.21;43.97
65019;BME280;66069;51.164;-114.452;2023-02-10T07:00:43;87886.69;;;17.11;44.10
65019;BME280;66069;51.164;-114.452;2023-02-10T07:03:13;87894.94;;;17.16;44.14
65019;BME280;66069;51.164;-114.452;2023-02-10T07:05:40;87865.59;;;17.04;44.21
65019;BME280;66069;51.164;-114.452;2023-02-10T07:08:07;87849.03;;;16.96;43.91
65019;BME280;66069;51.164;-114.452;2023-02-10T07:10:33;87860.28;;;17.04;44.03
65019;BME280;66069;51.164;-114.452;2023-02-10T07:13:00;87872.38;;;17.05;44.10
65019;BME280;66069;51.164;-114.452;2023-02-10T07:15:26;87879.19;;;17.06;44.01
65019;BME280;66069;51.164;-114.452;2023-02-10T07:17:53;87878.34;;;17.12;44.09
65019;BME280;66069;51.164;-114.452;2023-02-10T07:20:20;87877.25;;;17.10;44.00
65019;BME280;66069;51.164;-114.452;2023-02-10T07:22:46;87876.84;;;17.11;43.91
65019;BME280;66069;51.164;-114.452;2023-02-10T07:25:13;87873.44;;;17.11;43.99
65019;BME280;66069;51.164;-114.452;2023-02-10T07:27:40;87878.00;;;17.10;44.11
65019;BME280;66069;51.164;-114.452;2023-02-10T07:30:06;87871.66;;;17.01;43.91
65019;BME280;66069;51.164;-114.452;2023-02-10T07:32:33;87857.75;;;16.97;44.06
65019;BME280;66069;51.164;-114.452;2023-02-10T07:34:59;87857.34;;;16.98;44.04
65019;BME280;66069;51.164;-114.452;2023-02-10T07:37:25;87853.19;;;16.97;43.98
65019;BME280;66069;51.164;-114.452;2023-02-10T07:39:52;87847.47;;;16.99;44.07
65019;BME280;66069;51.164;-114.452;2023-02-10T07:42:18;87840.69;;;16.98;43.85
65019;BME280;66069;51.164;-114.452;2023-02-10T07:44:45;87858.50;;;16.93;44.02
65019;BME280;66069;51.164;-114.452;2023-02-10T07:47:11;87858.09;;;16.99;44.02
65019;BME280;66069;51.164;-114.452;2023-02-10T07:49:37;87832.16;;;16.83;43.86
65019;BME280;66069;51.164;-114.452;2023-02-10T07:52:04;87850.16;;;16.95;44.09
65019;BME280;66069;51.164;-114.452;2023-02-10T07:54:30;87840.72;;;16.94;43.93
65019;BME280;66069;51.164;-114.452;2023-02-10T07:56:57;87840.81;;;16.87;43.92
65019;BME280;66069;51.164;-114.452;2023-02-10T07:59:23;87850.16;;;16.95;44.07
65019;BME280;66069;51.164;-114.452;2023-02-10T08:01:50;87830.13;;;16.94;43.95
65019;BME280;66069;51.164;-114.452;2023-02-10T08:04:16;87800.47;;;16.76;43.96
65019;BME280;66069;51.164;-114.452;2023-02-10T08:06:42;87816.25;;;16.86;43.90
65019;BME280;66069;51.164;-114.452;2023-02-10T08:09:09;87819.97;;;16.89;43.94
65019;BME280;66069;51.164;-114.452;2023-02-10T08:11:35;87803.41;;;16.85;43.73
65019;BME280;66069;51.164;-114.452;2023-02-10T08:14:02;87792.06;;;16.84;43.82
65019;BME280;66069;51.164;-114.452;2023-02-10T08:16:29;87794.41;;;16.79;43.91
65019;BME280;66069;51.164;-114.452;2023-02-10T08:18:55;87786.88;;;16.77;43.83
65019;BME280;66069;51.164;-114.452;2023-02-10T08:21:22;87789.09;;;16.79;43.86
65019;BME280;66069;51.164;-114.452;2023-02-10T08:23:48;87783.06;;;16.78;43.99
65019;BME280;66069;51.164;-114.452;2023-02-10T08:26:21;87765.28;;;16.79;43.77
65019;BME280;66069;51.164;-114.452;2023-02-10T08:28:48;87767.19;;;16.78;44.05
65019;BME280;66069;51.164;-114.452;2023-02-10T08:31:15;87771.66;;;16.81;43.80
65019;BME280;66069;51.164;-114.452;2023-02-10T08:33:41;87756.97;;;16.77;43.78
65019;BME280;66069;51.164;-114.452;2023-02-10T08:36:11;87742.97;;;16.76;43.86
65019;BME280;66069;51.164;-114.452;2023-02-10T08:38:38;87714.84;;;16.59;43.78
65019;BME280;66069;51.164;-114.452;2023-02-10T08:41:04;87739.25;;;16.74;43.83
65019;BME280;66069;51.164;-114.452;2023-02-10T08:43:31;87734.66;;;16.78;44.03
65019;BME280;66069;51.164;-114.452;2023-02-10T08:45:59;87729.00;;;16.76;43.91
65019;BME280;66069;51.164;-114.452;2023-02-10T08:48:26;87716.56;;;16.73;43.79
65019;BME280;66069;51.164;-114.452;2023-02-10T08:50:53;87720.72;;;16.74;43.95
65019;BME280;66069;51.164;-114.452;2023-02-10T08:53:20;87699.00;;;16.55;43.84
65019;BME280;66069;51.164;-114.452;2023-02-10T08:56:04;87712.44;;;16.72;43.70
65019;BME280;66069;51.164;-114.452;2023-02-10T08:58:30;87693.66;;;16.59;43.69
65019;BME280;66069;51.164;-114.452;2023-02-10T09:00:57;87692.84;;;16.62;43.98
65019;BME280;66069;51.164;-114.452;2023-02-10T09:03:23;87705.69;;;16.63;43.84
65019;BME280;66069;51.164;-114.452;2023-02-10T09:05:50;87694.41;;;16.59;43.99
65019;BME280;66069;51.164;-114.452;2023-02-10T09:08:17;87691.28;;;16.64;43.90
65019;BME280;66069;51.164;-114.452;2023-02-10T09:10:45;87680.06;;;16.57;43.62
65019;BME280;66069;51.164;-114.452;2023-02-10T09:13:12;87674.94;;;16.46;44.01
65019;BME280;66069;51.164;-114.452;2023-02-10T09:15:40;87693.25;;;16.60;43.85
65019;BME280;66069;51.164;-114.452;2023-02-10T09:18:08;87683.16;;;16.52;43.71
65019;BME280;66069;51.164;-114.452;2023-02-10T09:20:35;87679.00;;;16.51;43.74
65019;BME280;66069;51.164;-114.452;2023-02-10T09:23:02;87700.44;;;16.60;44.11
65019;BME280;66069;51.164;-114.452;2023-02-10T09:25:28;87701.59;;;16.59;43.92
65019;BME280;66069;51.164;-114.452;2023-02-10T09:27:55;87686.22;;;16.50;43.86
65019;BME280;66069;51.164;-114.452;2023-02-10T09:30:24;87683.53;;;16.54;43.79
65019;BME280;66069;51.164;-114.452;2023-02-10T09:32:51;87694.09;;;16.54;43.94
65019;BME280;66069;51.164;-114.452;2023-02-10T09:35:18;87686.31;;;16.43;43.83
65019;BME280;66069;51.164;-114.452;2023-02-10T09:37:44;87685.88;;;16.48;43.92
65019;BME280;66069;51.164;-114.452;2023-02-10T09:40:20;87692.63;;;16.53;43.63
65019;BME280;66069;51.164;-114.452;2023-02-10T09:42:57;87697.16;;;16.52;43.89
65019;BME280;66069;51.164;-114.452;2023-02-10T09:45:33;87684.00;;;16.45;43.68
65019;BME280;66069;51.164;-114.452;2023-02-10T09:51:08;87681.88;;;16.33;43.68
65019;BME280;66069;51.164;-114.452;2023-02-10T09:53:39;87687.91;;;16.37;43.75
65019;BME280;66069;51.164;-114.452;2023-02-10T09:56:20;87683.00;;;16.35;43.91
65019;BME280;66069;51.164;-114.452;2023-02-10T09:58:54;87688.31;;;16.35;43.76
65019;BME280;66069;51.164;-114.452;2023-02-10T10:01:29;87702.94;;;16.43;43.71
65019;BME280;66069;51.164;-114.452;2023-02-10T10:04:10;87705.56;;;16.43;43.81
65019;BME280;66069;51.164;-114.452;2023-02-10T10:06:41;87704.47;;;16.41;43.77
65019;BME280;66069;51.164;-114.452;2023-02-10T10:14:26;87694.00;;;16.34;43.85
65019;BME280;66069;51.164;-114.452;2023-02-10T10:17:07;87701.13;;;16.37;43.99
65019;BME280;66069;51.164;-114.452;2023-02-10T10:19:52;87699.63;;;16.36;43.91
65019;BME280;66069;51.164;-114.452;2023-02-10T10:34:02;87675.50;;;16.30;43.95
65019;BME280;66069;51.164;-114.452;2023-02-10T10:36:37;87666.53;;;16.24;43.73
65019;BME280;66069;51.164;-114.452;2023-02-10T10:41:41;87648.81;;;16.21;43.63
65019;BME280;66069;51.164;-114.452;2023-02-10T10:44:11;87634.88;;;16.17;43.89
65019;BME280;66069;51.164;-114.452;2023-02-10T10:49:05;87645.84;;;16.15;43.79
65019;BME280;66069;51.164;-114.452;2023-02-10T10:51:32;87637.56;;;16.13;43.81
65019;BME280;66069;51.164;-114.452;2023-02-10T10:54:01;87631.50;;;16.13;43.93
65019;BME280;66069;51.164;-114.452;2023-02-10T10:57:04;87634.81;;;16.21;43.94
65019;BME280;66069;51.164;-114.452;2023-02-10T10:59:41;87620.09;;;16.20;43.81
65019;BME280;66069;51.164;-114.452;2023-02-10T11:02:12;87623.88;;;16.19;43.96
65019;BME280;66069;51.164;-114.452;2023-02-10T11:04:39;87616.91;;;16.05;43.90
65019;BME280;66069;51.164;-114.452;2023-02-10T11:07:17;87617.25;;;16.07;44.01
65019;BME280;66069;51.164;-114.452;2023-02-10T11:09:54;87615.66;;;16.13;43.79
65019;BME280;66069;51.164;-114.452;2023-02-10T11:12:28;87617.66;;;16.05;43.85
65019;BME280;66069;51.164;-114.452;2023-02-10T11:14:57;87601.03;;;16.05;43.88
65019;BME280;66069;51.164;-114.452;2023-02-10T11:22:38;87595.34;;;16.06;43.82
65019;BME280;66069;51.164;-114.452;2023-02-10T11:27:57;87603.63;;;16.08;43.82
65019;BME280;66069;51.164;-114.452;2023-02-10T11:30:35;87596.50;;;16.05;43.72
65019;BME280;66069;51.164;-114.452;2023-02-10T11:33:05;87610.78;;;16.08;43.69
65019;BME280;66069;51.164;-114.452;2023-02-10T11:35:33;87600.38;;;15.97;43.83
65019;BME280;66069;51.164;-114.452;2023-02-10T11:38:14;87603.34;;;16.03;43.38
65019;BME280;66069;51.164;-114.452;2023-02-10T11:40:56;87599.63;;;15.97;43.96
65019;BME280;66069;51.164;-114.452;2023-02-10T11:43:44;87608.63;;;16.03;43.75
65019;BME280;66069;51.164;-114.452;2023-02-10T11:46:23;87588.38;;;15.89;43.69
65019;BME280;66069;51.164;-114.452;2023-02-10T11:49:02;87594.69;;;15.99;44.04
65019;BME280;66069;51.164;-114.452;2023-02-10T11:51:29;87589.44;;;15.95;43.88
65019;BME280;66069;51.164;-114.452;2023-02-10T11:53:57;87592.03;;;15.99;43.91
65019;BME280;66069;51.164;-114.452;2023-02-10T11:56:33;87590.56;;;15.98;43.73
65019;BME280;66069;51.164;-114.452;2023-02-10T11:59:31;87588.31;;;15.96;43.78
65019;BME280;66069;51.164;-114.452;2023-02-10T12:07:51;87578.19;;;15.91;43.85
65019;BME280;66069;51.164;-114.452;2023-02-10T12:10:30;87589.09;;;15.93;43.73
65019;BME280;66069;51.164;-114.452;2023-02-10T12:13:11;87564.66;;;15.85;43.64
65019;BME280;66069;51.164;-114.452;2023-02-10T12:32:51;87571.09;;;15.84;43.74
65019;BME280;66069;51.164;-114.452;2023-02-10T12:46:46;87571.88;;;15.81;43.64
65019;BME280;66069;51.164;-114.452;2023-02-10T12:52:07;87536.63;;;15.61;43.77
65019;BME280;66069;51.164;-114.452;2023-02-10T12:54:46;87556.84;;;15.75;43.76
65019;BME280;66069;51.164;-114.452;2023-02-10T13:02:32;87526.00;;;15.65;44.10
65019;BME280;66069;51.164;-114.452;2023-02-10T13:05:09;87546.25;;;15.78;43.97
65019;BME280;66069;51.164;-114.452;2023-02-10T13:10:37;87555.53;;;15.90;44.19
65019;BME280;66069;51.164;-114.452;2023-02-10T13:13:15;87551.38;;;15.89;44.29
65019;BME280;66069;51.164;-114.452;2023-02-10T13:18:25;87551.56;;;16.02;44.90
65019;BME280;66069;51.164;-114.452;2023-02-10T13:21:56;87538.41;;;15.98;44.72
65019;BME280;66069;51.164;-114.452;2023-02-10T13:23:53;87557.13;;;16.11;45.09
65019;BME280;66069;51.164;-114.452;2023-02-10T13:32:21;87545.28;;;16.19;45.47
65019;BME280;66069;51.164;-114.452;2023-02-10T13:34:54;87558.81;;;16.25;45.78
65019;BME280;66069;51.164;-114.452;2023-02-10T13:38:06;87542.16;;;16.28;45.91
65019;BME280;66069;51.164;-114.452;2023-02-10T13:40:28;87519.88;;;16.25;45.76
65019;BME280;66069;51.164;-114.452;2023-02-10T13:43:01;87528.41;;;16.36;46.01
65019;BME280;66069;51.164;-114.452;2023-02-10T13:45:33;87535.72;;;16.52;46.01
65019;BME280;66069;51.164;-114.452;2023-02-10T13:48:04;87539.91;;;16.50;46.04
65019;BME280;66069;51.164;-114.452;2023-02-10T13:50:53;87549.50;;;16.63;45.93
65019;BME280;66069;51.164;-114.452;2023-02-10T13:58:32;87526.38;;;16.71;46.17
65019;BME280;66069;51.164;-114.452;2023-02-10T14:00:59;87500.31;;;16.66;46.27
65019;BME280;66069;51.164;-114.452;2023-02-10T14:03:30;87518.63;;;16.80;46.18
65019;BME280;66069;51.164;-114.452;2023-02-10T14:06:03;87526.91;;;16.82;45.95
65019;BME280;66069;51.164;-114.452;2023-02-10T14:08:36;87539.94;;;16.97;46.02
65019;BME280;66069;51.164;-114.452;2023-02-10T14:13:35;87541.69;;;17.03;45.94
65019;BME280;66069;51.164;-114.452;2023-02-10T14:16:44;87539.34;;;17.09;46.10
65019;BME280;66069;51.164;-114.452;2023-02-10T14:18:58;87535.13;;;17.11;45.96
65019;BME280;66069;51.164;-114.452;2023-02-10T14:21:26;87538.09;;;17.13;45.86
65019;BME280;66069;51.164;-114.452;2023-02-10T14:23:55;87552.31;;;17.23;45.84
65019;BME280;66069;51.164;-114.452;2023-02-10T14:26:30;87528.53;;;17.19;45.95
65019;BME280;66069;51.164;-114.452;2023-02-10T14:28:59;87519.84;;;17.19;45.90
65019;BME280;66069;51.164;-114.452;2023-02-10T14:31:36;87544.19;;;17.34;46.01
65019;BME280;66069;51.164;-114.452;2023-02-10T14:34:17;87537.78;;;17.31;45.80
65019;BME280;66069;51.164;-114.452;2023-02-10T14:39:24;87545.84;;;17.44;45.80
65019;BME280;66069;51.164;-114.452;2023-02-10T14:41:51;87528.06;;;17.44;45.92
65019;BME280;66069;51.164;-114.452;2023-02-10T14:47:06;87541.53;;;17.54;45.81